Jepson Prairie Reserve, California Weather observations

Data are for 10 minute period ending at time listed.
 Day   Time   Solar   Ave.   Ave.  Ave.  Vector  Max.   Baro.   Total    
  of    of     Rad.   Air    Rel.  Wind   Wind   Wind  Press.  Precip.   
Year   Day            Temp.  Hum.  Speed  Dir.   Gust                    
2015   (PST)  Kw/m2    F      %     mph   deg.    mph    mb.     in.     
-------------------------------------------------------------------------
 143    3:10   0.00   55.3    84   17.7   214    23.2   1014.6    0.00 
 143    3:20   0.00   55.3    84   16.8   216    24.0   1014.6    0.00 
 143    3:30   0.00   55.1    85   16.3   217    20.8   1014.2    0.00 
 143    3:40   0.00   55.0    85   15.6   216    19.7   1014.2    0.00 
 143    3:50   0.00   54.9    85   14.3   215    19.0   1014.2    0.00 
 143    4:00   0.00   55.0    85   15.1   213    19.7   1014.6    0.00 
 143    4:10   0.00   54.9    85   15.2   213    20.5   1014.6    0.00 
 143    4:20   0.00   54.9    84   15.5   216    20.4   1014.6    0.00 
 143    4:30   0.00   54.9    84   15.9   216    20.5   1014.6    0.00 
 143    4:40   0.00   55.0    84   15.2   213    20.0   1014.9    0.00 
 143    4:50   0.00   55.0    84   14.6   215    20.2   1014.9    0.00 
 143    5:00   0.00   54.9    84   14.7   217    19.3   1014.9    0.00 
 143    5:10   0.01   54.9    84   13.4   218    17.2   1014.9    0.00 
 143    5:20   0.01   54.9    84   12.4   212    15.8   1014.9    0.00 
 143    5:30   0.01   55.1    84   12.1   212    15.1   1015.2    0.00 
 143    5:40   0.03   55.2    84   12.1   214    15.3   1015.2    0.00 
 143    5:50   0.04   55.3    84   12.3   216    14.7   1015.2    0.00 
 143    6:00   0.06   55.5    84   12.9   216    16.1   1015.6    0.00 
 143    6:10   0.06   55.7    83   13.6   215    17.9   1015.6    0.00 
 143    6:20   0.07   55.8    83   13.7   217    17.3   1015.6    0.00 
 143    6:30   0.08   56.0    82   12.7   216    16.1   1015.9    0.00 
 143    6:40   0.08   56.2    82   13.2   210    16.4   1015.9    0.00 
 143    6:50   0.10   56.2    82   14.3   207    18.3   1015.9    0.00 
 143    7:00   0.10   56.4    81   12.9   208    17.1   1015.9    0.00 
 143    7:10   0.10   56.5    80   13.2   212    17.8   1016.3    0.00 
 143    7:20   0.12   56.6    80   12.7   215    15.9   1016.3    0.00 
 143    7:30   0.12   56.7    80   12.6   219    16.7   1016.3    0.00 
 143    7:40   0.13   57.0    78   11.4   215    14.5   1016.3    0.00 
 143    7:50   0.15   57.1    78   13.5   200    16.9   1016.3    0.00 
 143    8:00   0.18   57.3    77   13.6   205    18.0   1016.6    0.00 
 143    8:10   0.20   57.7    76   13.1   206    18.6   1016.6    0.00 
 143    8:20   0.20   57.9    76   12.9   203    17.2   1016.6    0.00 
 143    8:30   0.23   57.9    75   13.6   202    18.3   1016.6    0.00 
 143    8:40   0.28   58.2    74   13.5   208    17.5   1016.6    0.00 
 143    8:50   0.34   58.8    73   13.0   213    17.3   1016.6    0.00 
 143    9:00   0.41   59.6    72   13.0   201    17.2   1016.6    0.00 
 143    9:10   0.39   59.8    71   12.8   210    17.1   1016.6    0.00 
 143    9:20   0.52   60.3    70   12.7   208    16.7   1016.6    0.00 
 143    9:30   0.57   61.4    68   12.2   212    17.2   1016.6    0.00 
 143    9:40   0.45   61.8    67   12.9   207    19.0   1016.6    0.00 
 143    9:50   0.77   61.8    67   13.0   203    18.3   1016.6    0.00 
 143   10:00   0.76   63.3    64   11.9   202    16.6   1016.6    0.00 
 143   10:10   0.76   63.4    64   11.1   203    17.5   1016.6    0.00 
 143   10:20   0.82   64.3    62   12.1   200    16.4   1016.6    0.00 
 143   10:30   0.75   64.3    62   12.4   202    18.5   1016.3    0.00 
 143   10:40   0.90   64.9    61   12.7   199    19.9   1016.3    0.00 
 143   10:50   0.91   64.8    62   12.5   206    17.4   1015.9    0.00 
 143   11:00   0.84   65.1    61   12.1   205    18.9   1015.9    0.00 
 143   11:10   0.74   65.6    60    9.8   204    15.0   1016.3    0.00 
 143   11:20   0.72   65.5    60    9.8   205    13.4   1016.3    0.00 
 143   11:30   0.80   66.4    59    9.8   214    15.9   1016.3    0.00 
 143   11:40   0.87   67.0    58   11.6   192    19.1   1016.3    0.00 
 143   11:50   0.89   67.0    58   12.3   194    18.3   1016.3    0.00 
 143   12:00   0.89   67.9    57   12.4   206    21.0   1015.9    0.00 
 143   12:10   0.94   68.3    56   12.4   198    18.8   1015.9    0.00 
 143   12:20   0.93   68.1    56   11.9   204    17.2   1015.9    0.00 
 143   12:30   0.93   68.9    55   10.8   186    17.0   1015.6    0.00 
 143   12:40   0.93   69.0    54   10.3   196    17.9   1015.6    0.00 
 143   12:50   0.92   69.7    53   11.0   208    17.1   1015.2    0.00 
 143   13:00   0.91   69.5    53   11.4   199    16.6   1015.2    0.00 
 143   13:10   0.91   69.9    52   13.2   200    19.3   1014.9    0.00 
 143   13:20   0.90   70.0    52   13.5   199    21.3   1014.9    0.00 
 143   13:30   0.88   70.5    51   14.7   194    21.0   1014.6    0.00 
 143   13:40   0.89   71.0    50   15.2   198    20.6   1014.6    0.00 
 143   13:50   0.86   71.8    50   14.3   205    20.4   1014.6    0.00 
 143   14:00   0.85   71.9    50   14.8   209    21.3   1014.2    0.00 
 143   14:10   0.83   72.5    49   14.1   229    21.9   1014.2    0.00 
 143   14:20   0.77   72.1    50   13.7   229    19.1   1014.2    0.00 
 143   14:30   0.51   72.0    49   14.2   213    20.4   1013.9    0.00 
 143   14:40   0.67   71.6    50   15.5   200    23.1   1013.9    0.00 
 143   14:50   0.77   73.1    48   14.9   214    22.8   1013.5    0.00 
 143   15:00   0.73   73.0    48   15.0   203    20.3   1013.5    0.00 
 143   15:10   0.69   73.4    48   15.5   204    22.6   1013.2    0.00 
 143   15:20   0.38   72.3    50   14.7   204    19.1   1013.2    0.00 
 143   15:30   0.48   72.0    50   14.9   207    19.7   1013.2    0.00 
 143   15:40   0.62   73.0    50   15.5   198    21.0   1013.2    0.00 
 143   15:50   0.58   73.1    50   15.5   203    20.5   1013.2    0.00 
 143   16:00   0.55   72.7    50   16.2   200    20.8   1012.9    0.00 
 143   16:10   0.52   73.0    51   15.0   201    20.8   1012.9    0.00 
 143   16:20   0.49   73.1    51   15.1   214    21.1   1012.9    0.00 
 143   16:30   0.46   73.3    50   16.1   226    21.1   1012.9    0.00 
 143   16:40   0.42   73.3    50   15.4   222    19.1   1012.9    0.00 
 143   16:50   0.39   72.9    51   17.0   219    21.1   1012.9    0.00 
 143   17:00   0.34   72.4    51   17.7   216    23.5   1012.9    0.00 
 143   17:10   0.32   72.1    52   17.0   218    21.9   1012.9    0.00 
 143   17:20   0.29   71.7    52   17.9   218    23.6   1012.5    0.00 
 143   17:30   0.26   71.0    53   19.2   217    23.8   1012.9    0.00 
 143   17:40   0.22   70.3    53   19.2   222    23.5   1012.9    0.00 
 143   17:50   0.19   69.9    53   17.9   224    23.1   1012.9    0.00 
 143   18:00   0.16   69.2    53   18.8   223    23.8   1012.5    0.00 
 143   18:10   0.14   69.0    54   19.1   220    23.7   1012.5    0.00 
 143   18:20   0.11   68.5    54   18.0   219    22.6   1012.5    0.00 
 143   18:30   0.08   67.6    57   18.1   212    22.5   1012.9    0.00 
 143   18:40   0.07   66.7    59   18.1   210    23.5   1012.9    0.00 
 143   18:50   0.04   66.1    60   16.9   214    23.5   1012.9    0.00 
 143   19:00   0.03   65.6    60   15.5   218    20.3   1012.9    0.00 
 143   19:10   0.01   64.9    59   15.1   221    19.1   1013.2    0.00 
 143   19:20   0.01   64.0    60   16.7   223    22.4   1013.2    0.00 
 143   19:30   0.00   63.3    61   15.4   220    19.7   1013.2    0.00 
 143   19:40   0.00   62.5    62   15.3   216    19.1   1013.2    0.00 
 143   19:50   0.00   61.6    64   14.1   213    17.0   1013.2    0.00 
 143   20:00   0.00   61.1    65   14.7   216    19.7   1013.2    0.00 
 143   20:10   0.00   60.8    65   17.1   218    22.9   1013.5    0.00 
 143   20:20   0.00   60.4    66   18.6   224    23.2   1013.5    0.00 
 143   20:30   0.00   60.1    67   18.6   222    23.6   1013.5    0.00 
 143   20:40   0.00   59.7    69   17.9   221    21.9   1013.5    0.00 
 143   20:50   0.00   59.3    70   16.5   220    22.9   1013.5    0.00 
 143   21:00   0.00   58.6    72   15.1   218    19.7   1013.5    0.00 
 143   21:10   0.00   58.2    74   16.2   215    20.9   1013.5    0.00 
 143   21:20   0.00   58.0    78   18.6   214    22.8   1013.5    0.00 
 143   21:30   0.00   57.5    78   19.5   215    24.2   1013.5    0.00 
 143   21:40   0.00   57.3    78   18.6   215    22.9   1013.5    0.00 
 143   21:50   0.00   57.0    79   18.5   215    23.1   1013.5    0.00 
 143   22:00   0.00   56.9    79   18.1   213    22.9   1013.5    0.00 
 143   22:10   0.00   56.8    80   16.8   218    22.3   1013.5    0.00 
 143   22:20   0.00   56.4    80   18.2   220    23.4   1013.5    0.00 
 143   22:30   0.00   56.2    80   18.3   219    22.8   1013.5    0.00 
 143   22:40   0.00   55.9    81   17.1   221    21.1   1013.5    0.00 
 143   22:50   0.00   55.9    81   17.5   214    21.6   1013.5    0.00 
 143   23:00   0.00   55.8    81   18.5   219    23.1   1013.2    0.00 
 143   23:10   0.00   55.7    81   19.1   218    23.5   1013.2    0.00 
 143   23:20   0.00   55.4    80   18.1   218    23.2   1013.2    0.00 
 143   23:30   0.00   55.2    81   17.9   220    23.6   1013.2    0.00 
 143   23:40   0.00   55.0    81   19.2   219    25.1   1013.2    0.00 
 143   23:50   0.00   54.6    82   20.0   222    25.0   1013.2    0.00 
 144    0:00   0.00   54.4    82   19.4   222    25.0   1013.2    0.00 
 144    0:10   0.00   54.3    83   18.7   219    22.7   1013.2    0.00 
 144    0:20   0.00   54.3    83   18.0   221    23.5   1013.2    0.00 
 144    0:30   0.00   54.4    82   19.2   219    24.5   1013.2    0.00 
 144    0:40   0.00   54.2    83   17.6   217    24.2   1012.9    0.00 
 144    0:50   0.00   54.1    84   18.3   216    24.0   1012.9    0.00 
 144    1:00   0.00   54.1    84   19.5   222    26.3   1012.9    0.00 
 144    1:10   0.00   54.1    84   20.5   224    25.1   1012.9    0.00 
 144    1:20   0.00   54.0    84   20.0   224    26.7   1012.9    0.00 
 144    1:30   0.00   54.0    84   20.2   222    24.8   1012.5    0.00 
 144    1:40   0.00   53.9    84   20.2   220    24.7   1012.5    0.00 
 144    1:50   0.00   53.8    85   19.4   222    24.5   1012.2    0.00 
 144    2:00   0.00   53.9    85   20.4   222    25.1   1012.2    0.00 
 144    2:10   0.00   53.7    86   19.8   224    26.1   1011.9    0.00 
 144    2:20   0.00   53.6    86   18.6   223    23.5   1011.9    0.00 
 144    2:30   0.00   53.7    86   19.6   222    24.4   1011.9    0.00 
 144    2:40   0.00   53.5    87   18.4   222    23.6   1011.5    0.00 
 144    2:50   0.00   53.4    88   18.9   220    24.4   1011.5    0.00 
 144    3:00   0.00   53.3    88   18.2   220    23.2   1011.5    0.00 

Return to Jepson Prairie Reserve graphs page.


Western Regional Climate Center,wrcc@dri.edu